Time;durP1;ratioP1;P1;durP2;ratioP2;P2;SDS_P1;SDS_P2;PMS_P1;PMS_P2;Temp;Humidity;BMP_temperature;BMP_pressure;BME280_temperature;BME280_humidity;BME280_pressure;Samples;Min_cycle;Max_cycle;Signal;HPM_P1;HPM_P2
2023/12/10 00:01:23;;;;;;;25.75;4.93;;;;;;;10.73;77.25;97851.56;5012991;28;20042;-76
2023/12/10 00:03:50;;;;;;;25.73;5.25;;;;;;;10.72;76.85;97847.28;5030418;28;20128;-80
2023/12/10 00:06:17;;;;;;;35.72;4.70;;;;;;;10.71;76.91;97853.50;5030131;28;20088;-78
2023/12/10 00:08:44;;;;;;;27.65;5.45;;;;;;;10.72;77.17;97843.81;5030917;28;20156;-76
2023/12/10 00:11:11;;;;;;;34.65;5.75;;;;;;;10.73;76.62;97848.13;5030571;28;20104;-77
2023/12/10 00:13:38;;;;;;;27.15;5.53;;;;;;;10.73;76.90;97854.19;5030563;28;20052;-77
2023/12/10 00:16:05;;;;;;;27.23;4.43;;;;;;;10.74;76.72;97847.13;5012598;28;20089;-79
2023/12/10 00:18:32;;;;;;;27.52;5.68;;;;;;;10.74;76.63;97850.59;5030532;28;20129;-77
2023/12/10 00:20:58;;;;;;;24.17;4.85;;;;;;;10.73;76.49;97861.28;5030491;28;20057;-78
2023/12/10 00:23:25;;;;;;;27.33;5.43;;;;;;;10.72;76.62;97865.69;5030502;28;20069;-81
2023/12/10 00:25:52;;;;;;;27.48;4.35;;;;;;;10.72;76.46;97876.22;5012808;28;20064;-77
2023/12/10 00:28:18;;;;;;;27.00;5.75;;;;;;;10.69;76.14;97864.16;5029668;28;20045;-77
2023/12/10 00:30:47;;;;;;;30.80;5.40;;;;;;;10.68;75.64;97874.81;5029916;28;20129;-78
2023/12/10 00:33:15;;;;;;;33.47;6.53;;;;;;;10.68;75.90;97869.56;5012376;28;20128;-78
2023/12/10 00:35:42;;;;;;;32.33;5.18;;;;;;;10.70;76.16;97878.16;5012708;28;20068;-79
2023/12/10 00:38:10;;;;;;;37.13;6.95;;;;;;;10.71;75.84;97882.44;5030317;28;20136;-79
2023/12/10 00:40:37;;;;;;;37.15;6.13;;;;;;;10.71;75.99;97876.34;5012612;28;20094;-78
2023/12/10 00:43:04;;;;;;;30.48;5.55;;;;;;;10.71;75.69;97900.88;5033065;28;20049;-77
2023/12/10 00:45:30;;;;;;;30.90;5.22;;;;;;;10.69;75.16;97897.53;5033406;28;20111;-79
2023/12/10 00:47:57;;;;;;;33.92;6.07;;;;;;;10.72;75.53;97886.75;5033988;28;20045;-77
2023/12/10 00:50:24;;;;;;;27.95;6.47;;;;;;;10.73;75.44;97901.56;5033787;28;20045;-77
2023/12/10 00:52:50;;;;;;;34.60;5.95;;;;;;;10.73;74.93;97898.91;5033774;28;20107;-78
2023/12/10 00:55:17;;;;;;;24.80;4.45;;;;;;;10.76;75.02;97897.84;5015933;28;20083;-78
2023/12/10 00:57:43;;;;;;;35.60;5.28;;;;;;;10.75;74.64;97906.69;5033698;28;20088;-80
2023/12/10 01:00:10;;;;;;;33.20;5.20;;;;;;;10.76;74.54;97906.56;5015703;28;20060;-79
2023/12/10 01:02:39;;;;;;;32.47;5.68;;;;;;;10.74;72.71;97919.03;5016082;28;20072;-77
2023/12/10 01:05:06;;;;;;;27.38;5.28;;;;;;;10.76;74.11;97911.81;5033351;28;20049;-79
2023/12/10 01:07:33;;;;;;;24.25;5.30;;;;;;;10.77;74.17;97921.38;5193872;22;20049;-74
2023/12/10 01:09:59;;;;;;;32.65;5.53;;;;;;;10.78;74.11;97914.31;5033986;28;20045;-75
2023/12/10 01:12:26;;;;;;;33.60;6.38;;;;;;;10.78;74.07;97914.31;5033850;28;20052;-78
2023/12/10 01:14:53;;;;;;;34.42;6.40;;;;;;;10.80;73.87;97933.44;5033372;28;20111;-76
2023/12/10 01:17:19;;;;;;;29.38;4.82;;;;;;;10.79;74.18;97922.09;5033549;28;20647;-74
2023/12/10 01:19:47;;;;;;;29.25;5.65;;;;;;;10.78;73.75;97923.06;5033506;28;20049;-74
2023/12/10 01:22:14;;;;;;;24.83;5.13;;;;;;;10.76;73.68;97911.81;5016079;28;20148;-74
2023/12/10 01:24:41;;;;;;;40.67;5.45;;;;;;;10.78;73.80;97923.06;5033855;28;20045;-74
2023/12/10 01:27:09;;;;;;;37.35;5.30;;;;;;;10.76;73.21;97917.09;5033293;28;20132;-74
2023/12/10 01:29:35;;;;;;;39.78;6.07;;;;;;;10.77;73.41;97921.38;5033197;28;20103;-75
2023/12/10 01:32:02;;;;;;;34.50;5.97;;;;;;;10.75;73.09;97930.38;5033550;28;20053;-76
2023/12/10 01:34:29;;;;;;;27.75;5.05;;;;;;;10.74;73.07;97926.94;5033471;28;20049;-74
2023/12/10 01:36:55;;;;;;;26.23;4.78;;;;;;;10.76;73.43;97935.50;5015686;28;20409;-75
2023/12/10 01:39:22;;;;;;;34.35;5.07;;;;;;;10.74;73.02;97924.28;5033384;28;20041;-75
2023/12/10 01:41:49;;;;;;;31.30;5.75;;;;;;;10.73;73.11;97933.13;5033155;28;20041;-74
2023/12/10 01:44:15;;;;;;;32.40;5.03;;;;;;;10.73;72.82;97946.28;5015537;28;20103;-75
2023/12/10 01:46:44;;;;;;;29.10;5.57;;;;;;;10.73;72.92;97935.75;5033003;28;20053;-74
2023/12/10 01:49:10;;;;;;;26.83;5.28;;;;;;;10.76;73.49;97951.28;5028075;28;20045;-76
2023/12/10 01:51:38;;;;;;;26.00;5.70;;;;;;;10.76;73.39;97946.03;5032238;28;20052;-75
2023/12/10 01:54:04;;;;;;;32.40;5.88;;;;;;;10.77;73.66;97963.47;5032735;28;20076;-75
2023/12/10 01:56:32;;;;;;;29.80;6.95;;;;;;;10.76;73.21;97958.38;5032602;28;20100;-74
2023/12/10 01:58:58;;;;;;;28.33;4.78;;;;;;;10.74;73.07;97958.50;5028782;28;20100;-74
2023/12/10 02:01:26;;;;;;;29.65;5.55;;;;;;;10.72;73.13;97960.44;5012839;28;20054;-76
2023/12/10 02:03:53;;;;;;;25.10;4.97;;;;;;;10.70;73.21;97970.25;4995562;28;20410;-75
2023/12/10 02:06:22;;;;;;;22.80;4.65;;;;;;;10.66;73.39;97958.34;5012324;28;20053;-76
2023/12/10 02:08:49;;;;;;;31.17;5.25;;;;;;;10.60;73.46;97964.97;5012694;28;20046;-74
2023/12/10 02:11:16;;;;;;;29.67;5.00;;;;;;;10.54;73.44;97968.94;5030973;28;20057;-73
2023/12/10 02:13:42;;;;;;;26.05;5.53;;;;;;;10.51;74.00;97976.28;5032448;28;20558;-75
2023/12/10 02:16:09;;;;;;;29.38;4.97;;;;;;;10.45;74.05;97969.72;5032338;28;20115;-75
2023/12/10 02:18:36;;;;;;;22.45;4.72;;;;;;;10.41;74.33;97979.66;5032626;28;20089;-75
2023/12/10 02:21:03;;;;;;;24.23;4.88;;;;;;;10.37;74.46;97986.16;5030394;28;20045;-75
2023/12/10 02:23:46;;;;;;;21.52;4.88;;;;;;;10.31;74.36;97978.75;5032297;28;20391;-74
2023/12/10 02:26:13;;;;;;;23.73;4.82;;;;;;;10.26;74.85;97991.47;5014255;28;20089;-74
2023/12/10 02:28:40;;;;;;;23.48;4.80;;;;;;;10.22;75.23;97998.78;5032436;28;20394;-75
2023/12/10 02:31:07;;;;;;;27.95;5.10;;;;;;;10.13;74.84;98000.38;5020581;28;20058;-75
2023/12/10 02:33:33;;;;;;;28.27;5.05;;;;;;;10.11;75.58;97998.84;4995071;28;20056;-75
2023/12/10 02:36:00;;;;;;;27.00;4.75;;;;;;;10.06;75.79;97999.25;5012286;28;20088;-75
2023/12/10 02:38:27;;;;;;;32.53;5.00;;;;;;;10.01;75.78;97994.38;5012287;28;20726;-75
2023/12/10 02:40:54;;;;;;;23.55;4.65;;;;;;;9.99;76.02;97993.63;5018491;28;20136;-75
2023/12/10 02:43:21;;;;;;;20.92;4.38;;;;;;;9.95;76.02;97994.88;5032027;28;20053;-75
2023/12/10 02:45:47;;;;;;;24.63;4.45;;;;;;;9.92;76.37;97987.25;5031575;28;20045;-74
2023/12/10 02:48:14;;;;;;;29.75;5.57;;;;;;;9.87;76.42;97998.13;5031879;28;20041;-75
2023/12/10 02:50:41;;;;;;;25.05;4.57;;;;;;;9.87;76.42;97990.25;5030565;28;20049;-75
2023/12/10 02:53:08;;;;;;;20.77;4.30;;;;;;;9.84;76.29;97989.66;5031759;28;20076;-74
2023/12/10 02:55:34;;;;;;;27.52;5.68;;;;;;;9.82;76.46;97997.69;5031807;28;20136;-75
2023/12/10 02:58:01;;;;;;;23.73;4.88;;;;;;;9.79;76.20;97984.78;5031857;28;20060;-74
2023/12/10 03:00:31;;;;;;;22.55;4.20;;;;;;;9.76;76.24;97990.31;5031614;28;20060;-75
2023/12/10 03:02:58;;;;;;;29.38;4.38;;;;;;;9.76;76.48;97996.38;5030850;28;20045;-75
2023/12/10 03:05:25;;;;;;;32.25;5.22;;;;;;;9.74;76.39;98011.47;5029639;28;20048;-74
2023/12/10 03:07:52;;;;;;;27.60;4.95;;;;;;;9.72;76.19;98007.28;5031547;28;20057;-74
2023/12/10 03:10:20;;;;;;;20.27;4.03;;;;;;;9.71;76.26;97997.72;5013692;28;20045;-76
2023/12/10 03:12:46;;;;;;;23.00;4.63;;;;;;;9.67;76.00;98002.41;5022239;28;20111;-74
2023/12/10 03:15:13;;;;;;;21.23;4.13;;;;;;;9.66;76.02;98000.75;5030621;28;20431;-74
2023/12/10 03:17:39;;;;;;;28.40;4.93;;;;;;;9.63;76.16;97998.34;5031478;28;20512;-74
2023/12/10 03:20:09;;;;;;;24.10;4.85;;;;;;;9.60;76.33;98009.09;5031218;28;20065;-74
2023/12/10 03:22:36;;;;;;;22.60;4.10;;;;;;;9.57;76.34;98020.69;5030781;28;20104;-75
2023/12/10 03:25:03;;;;;;;19.70;3.90;;;;;;;9.54;76.35;98010.47;5031115;28;20092;-76
2023/12/10 03:27:30;;;;;;;18.90;3.65;;;;;;;9.51;76.88;98014.16;5031319;28;20046;-74
2023/12/10 03:29:56;;;;;;;30.70;4.75;;;;;;;9.47;76.75;98004.03;5031395;28;20145;-74
2023/12/10 03:32:23;;;;;;;20.90;4.30;;;;;;;9.45;76.93;98004.16;5031073;28;20127;-74
2023/12/10 03:34:49;;;;;;;20.85;3.75;;;;;;;9.40;77.19;98006.31;5030557;28;20088;-74
2023/12/10 03:37:16;;;;;;;22.73;3.97;;;;;;;9.38;77.31;98018.72;5031131;28;20049;-74
2023/12/10 03:39:43;;;;;;;15.85;3.67;;;;;;;9.37;77.44;98020.53;5031359;28;20045;-74
2023/12/10 03:42:09;;;;;;;12.13;3.38;;;;;;;9.36;77.50;98018.00;5028102;28;20050;-74
2023/12/10 03:44:36;;;;;;;20.83;3.70;;;;;;;9.33;77.64;98024.34;5011540;28;20046;-74
2023/12/10 03:47:02;;;;;;;20.50;3.85;;;;;;;9.31;77.52;98023.63;5011207;28;20057;-74
2023/12/10 03:49:30;;;;;;;28.80;4.75;;;;;;;9.30;77.80;98026.41;5011507;28;20434;-74
2023/12/10 03:51:57;;;;;;;20.48;3.83;;;;;;;9.27;77.83;98027.44;4994135;28;20064;-74
2023/12/10 03:54:23;;;;;;;22.90;3.70;;;;;;;9.27;78.09;98030.06;5029478;28;20103;-74
2023/12/10 03:56:50;;;;;;;25.10;4.43;;;;;;;9.23;78.04;98032.13;5030950;28;20152;-74
2023/12/10 03:59:17;;;;;;;18.95;3.47;;;;;;;9.23;78.27;98015.53;5013550;28;20473;-74
2023/12/10 04:01:43;;;;;;;21.98;3.72;;;;;;;9.21;78.26;98018.28;5029651;28;20478;-72
2023/12/10 04:04:11;;;;;;;21.30;3.47;;;;;;;9.20;78.20;98042.84;5011470;28;20054;-74
2023/12/10 04:06:42;;;;;;;19.17;4.05;;;;;;;9.17;78.34;98027.38;5010927;28;20050;-77
2023/12/10 04:09:09;;;;;;;18.90;3.83;;;;;;;9.19;78.64;98035.13;5011512;28;20050;-74
2023/12/10 04:11:36;;;;;;;21.95;3.60;;;;;;;9.17;78.68;98042.28;5011416;28;20111;-75
2023/12/10 04:14:06;;;;;;;21.45;4.20;;;;;;;9.16;78.55;98056.38;5010321;28;20460;-73
2023/12/10 04:16:33;;;;;;;19.63;3.85;;;;;;;9.13;78.51;98042.50;5031416;28;20099;-73
2023/12/10 04:18:59;;;;;;;23.00;4.25;;;;;;;9.09;78.63;98032.38;5034825;28;20053;-74
2023/12/10 04:21:26;;;;;;;20.45;3.92;;;;;;;9.07;78.83;98035.13;5017125;28;20053;-74
2023/12/10 04:23:53;;;;;;;21.38;4.00;;;;;;;9.06;78.67;98037.88;5033815;28;20494;-74
2023/12/10 04:26:20;;;;;;;23.95;4.47;;;;;;;9.05;78.65;98054.56;5034032;28;20053;-74
2023/12/10 04:28:46;;;;;;;23.45;3.83;;;;;;;9.03;78.82;98041.56;5034435;28;20056;-74
2023/12/10 04:31:13;;;;;;;23.48;3.97;;;;;;;9.03;78.99;98033.69;5034547;28;20103;-74
2023/12/10 04:33:43;;;;;;;23.60;4.03;;;;;;;8.99;78.79;98045.38;5033166;28;20061;-74
2023/12/10 04:36:11;;;;;;;20.73;4.57;;;;;;;8.98;78.88;98067.34;5033405;28;20061;-72
2023/12/10 04:38:38;;;;;;;22.52;3.67;;;;;;;8.97;78.98;98027.13;5034468;28;20060;-73
2023/12/10 04:41:05;;;;;;;17.73;3.47;;;;;;;8.97;78.99;98050.75;5034189;28;20065;-74
2023/12/10 04:43:32;;;;;;;15.98;3.42;;;;;;;8.94;78.93;98052.78;5026410;28;20046;-74
2023/12/10 04:45:58;;;;;;;25.65;4.03;;;;;;;8.92;78.96;98052.91;5014141;28;20058;-74
2023/12/10 04:48:25;;;;;;;19.27;3.13;;;;;;;8.91;79.07;98034.66;5012744;28;20111;-72
2023/12/10 04:50:52;;;;;;;30.58;3.88;;;;;;;8.91;79.02;98032.88;5012658;28;20080;-74
2023/12/10 04:53:19;;;;;;;17.27;3.53;;;;;;;8.89;79.16;98063.63;4997878;28;20089;-74
2023/12/10 04:55:45;;;;;;;20.02;3.50;;;;;;;8.88;79.11;98037.50;5033925;28;20111;-74
2023/12/10 04:58:12;;;;;;;16.60;3.17;;;;;;;8.89;79.10;98032.16;5034226;28;20395;-74
2023/12/10 05:00:38;;;;;;;14.38;3.20;;;;;;;8.88;79.32;98032.25;5034107;28;20147;-73
2023/12/10 05:03:05;;;;;;;24.27;3.88;;;;;;;8.87;79.36;98055.06;5034113;28;20042;-74
2023/12/10 05:05:32;;;;;;;24.80;3.30;;;;;;;8.87;79.45;98036.69;5016892;28;20407;-75
2023/12/10 05:07:59;;;;;;;17.65;3.92;;;;;;;8.88;79.38;98051.47;5014207;28;20526;-74
2023/12/10 05:10:25;;;;;;;18.05;3.72;;;;;;;8.88;79.55;98048.00;5013842;28;20085;-75
2023/12/10 05:12:54;;;;;;;22.80;3.95;;;;;;;8.84;79.41;98045.63;5014130;28;20053;-74
2023/12/10 05:15:21;;;;;;;21.83;3.80;;;;;;;8.85;79.71;98064.81;5013661;28;20045;-73
2023/12/10 05:17:48;;;;;;;22.70;3.97;;;;;;;8.84;79.57;98045.63;5014024;28;20045;-73
2023/12/10 05:20:15;;;;;;;20.75;3.90;;;;;;;8.83;79.79;98037.88;5013819;28;20482;-78
2023/12/10 05:22:41;;;;;;;27.33;4.35;;;;;;;8.82;79.81;98042.28;5013762;28;20092;-73
2023/12/10 05:25:08;;;;;;;22.52;4.45;;;;;;;8.81;79.82;98061.63;5015229;28;20136;-73
2023/12/10 05:27:35;;;;;;;18.25;3.65;;;;;;;8.80;79.81;98057.31;5013193;28;20049;-73
2023/12/10 05:30:01;;;;;;;18.63;4.20;;;;;;;8.82;79.73;98036.22;5013703;28;20407;-75
2023/12/10 05:32:28;;;;;;;20.92;4.05;;;;;;;8.82;79.84;98050.16;4996103;28;20139;-74
2023/12/10 05:34:55;;;;;;;21.80;4.38;;;;;;;8.81;79.79;98048.50;5014002;28;20414;-75
2023/12/10 05:37:22;;;;;;;18.38;3.53;;;;;;;8.82;79.91;98050.16;5013584;28;20050;-74
2023/12/10 05:39:48;;;;;;;20.92;4.63;;;;;;;8.83;79.97;98046.56;5013645;28;20159;-73
2023/12/10 05:42:15;;;;;;;19.58;3.83;;;;;;;8.83;80.15;98051.81;5013693;28;20042;-71
2023/12/10 05:44:41;;;;;;;21.85;3.65;;;;;;;8.82;79.93;98050.16;5013527;28;20050;-74
2023/12/10 05:47:08;;;;;;;19.17;4.07;;;;;;;8.84;79.63;98057.91;5029388;28;20045;-74
2023/12/10 05:49:35;;;;;;;22.50;4.28;;;;;;;8.84;80.00;98056.13;5032793;28;20474;-75
2023/12/10 05:52:01;;;;;;;23.60;4.30;;;;;;;8.85;79.90;98070.06;5032958;28;20049;-73
2023/12/10 05:54:28;;;;;;;17.40;3.60;;;;;;;8.86;80.18;98045.53;5033146;28;20076;-74
2023/12/10 05:56:55;;;;;;;21.08;3.97;;;;;;;8.85;80.01;98055.19;5021116;28;20054;-75
2023/12/10 05:59:21;;;;;;;24.58;3.70;;;;;;;8.84;80.12;98071.88;5012902;28;20140;-73
2023/12/10 06:01:48;;;;;;;23.77;3.92;;;;;;;8.85;80.24;98059.56;4995969;28;20474;-74
2023/12/10 06:04:15;;;;;;;22.48;4.18;;;;;;;8.84;80.29;98066.63;5013080;28;20042;-73
2023/12/10 06:06:42;;;;;;;21.88;3.63;;;;;;;8.85;80.30;98059.56;5017914;28;20474;-74
2023/12/10 06:09:09;;;;;;;23.63;4.00;;;;;;;8.87;80.39;98068.19;5015070;28;20041;-75
2023/12/10 06:11:36;;;;;;;25.77;4.40;;;;;;;8.86;80.38;98080.44;5032770;28;20049;-73
2023/12/10 06:14:02;;;;;;;25.08;4.00;;;;;;;8.86;80.42;98075.19;5032537;28;20558;-75
2023/12/10 06:16:29;;;;;;;22.77;4.22;;;;;;;8.88;80.61;98090.84;5031772;28;20049;-73
2023/12/10 06:19:22;;;;;;;27.63;4.85;;;;;;;8.85;79.99;98077.94;5032589;28;20049;-71
2023/12/10 06:21:48;;;;;;;23.40;4.57;;;;;;;8.91;80.76;98097.63;5032445;28;20421;-76
2023/12/10 06:24:15;;;;;;;35.67;5.18;;;;;;;8.90;80.79;98096.78;5015007;28;20084;-73
2023/12/10 06:26:41;;;;;;;20.98;3.42;;;;;;;8.92;80.94;98087.03;5032033;28;20501;-72
2023/12/10 06:29:08;;;;;;;25.52;4.55;;;;;;;8.92;81.01;98097.53;5014029;28;20100;-74
2023/12/10 06:31:35;;;;;;;32.38;5.00;;;;;;;8.94;80.83;98085.09;5012420;28;20089;-74
2023/12/10 06:34:01;;;;;;;19.00;3.97;;;;;;;8.95;80.78;98097.28;5012408;28;20120;-74
2023/12/10 06:36:28;;;;;;;27.77;4.72;;;;;;;8.95;81.08;98088.56;5012398;28;20045;-73
2023/12/10 06:38:55;;;;;;;29.98;4.45;;;;;;;8.94;80.89;98094.78;5006635;28;20053;-74
2023/12/10 06:41:21;;;;;;;21.98;4.50;;;;;;;8.97;81.05;98105.88;5031883;28;20142;-73
2023/12/10 06:43:48;;;;;;;32.80;5.05;;;;;;;8.96;80.80;98103.34;5032010;28;20103;-74
2023/12/10 06:46:17;;;;;;;31.10;5.05;;;;;;;8.95;80.71;98092.03;5014074;28;20514;-75
2023/12/10 06:48:44;;;;;;;22.48;4.53;;;;;;;9.00;80.59;98107.41;5006558;28;20127;-74
2023/12/10 06:51:11;;;;;;;30.48;3.88;;;;;;;9.00;80.84;98120.53;5012062;28;20054;-73
2023/12/10 06:53:40;;;;;;;21.30;3.90;;;;;;;8.99;80.61;98135.47;5012200;28;20104;-74
2023/12/10 06:56:08;;;;;;;32.17;5.18;;;;;;;8.99;80.55;98124.97;5011847;28;20581;-77
2023/12/10 06:58:34;;;;;;;35.03;5.15;;;;;;;9.00;80.67;98138.91;5012787;28;20609;-77
2023/12/10 07:01:03;;;;;;;23.10;4.35;;;;;;;9.00;80.44;98146.78;5012054;28;20066;-74
2023/12/10 07:03:30;;;;;;;44.67;6.55;;;;;;;8.98;80.85;98141.66;5012118;28;20064;-74
2023/12/10 07:08:24;;;;;;;31.65;4.63;;;;;;;9.00;80.82;98154.66;5006510;23;20400;-76
2023/12/10 07:10:51;;;;;;;28.88;4.72;;;;;;;8.99;80.73;98143.34;5012083;28;20046;-77
2023/12/10 07:13:17;;;;;;;27.52;4.93;;;;;;;9.00;80.94;98152.03;5011473;28;20061;-78
2023/12/10 07:15:45;;;;;;;27.05;4.68;;;;;;;9.01;80.60;98166.81;5011846;28;20081;-78
2023/12/10 07:18:12;;;;;;;27.73;4.10;;;;;;;9.02;80.89;98170.28;4994588;28;20137;-79
2023/12/10 07:20:39;;;;;;;23.92;4.63;;;;;;;9.01;80.79;98173.88;5011837;28;20046;-80
2023/12/10 07:23:05;;;;;;;27.05;4.63;;;;;;;8.98;81.00;98183.63;5011762;28;20042;-77
2023/12/10 07:25:32;;;;;;;23.75;4.47;;;;;;;9.01;81.02;98208.00;5011543;28;20118;-77
2023/12/10 07:27:59;;;;;;;26.88;4.88;;;;;;;9.02;81.17;98188.66;5012061;28;20092;-79
2023/12/10 07:30:25;;;;;;;29.25;5.30;;;;;;;9.03;80.85;98191.19;5011605;28;20483;-79
2023/12/10 07:32:53;;;;;;;32.78;6.70;;;;;;;9.01;81.10;98195.69;5011771;28;20045;-79
2023/12/10 07:35:20;;;;;;;27.08;4.90;;;;;;;9.02;81.11;98199.16;5011476;28;20525;-79
2023/12/10 07:37:46;;;;;;;27.38;5.35;;;;;;;9.02;81.28;98212.28;5011724;28;20050;-79
2023/12/10 07:40:13;;;;;;;31.58;4.95;;;;;;;9.02;81.24;98207.88;5125584;23;20065;-74
2023/12/10 07:42:40;;;;;;;18.52;4.20;;;;;;;9.00;81.31;98220.28;4994159;28;20517;-73
2023/12/10 07:45:07;;;;;;;22.38;4.53;;;;;;;8.99;81.37;98224.69;5011763;28;20136;-74
2023/12/10 07:47:33;;;;;;;28.58;4.35;;;;;;;8.99;81.28;98213.34;5011329;28;20053;-73
2023/12/10 07:50:00;;;;;;;25.42;4.55;;;;;;;8.99;81.51;98240.44;5011204;28;20100;-73
2023/12/10 07:52:26;;;;;;;21.55;4.35;;;;;;;8.98;81.40;98230.88;5013868;28;20150;-73
2023/12/10 07:54:53;;;;;;;29.00;4.28;;;;;;;8.98;81.39;98241.38;5013673;28;20498;-74
2023/12/10 07:57:20;;;;;;;27.67;5.20;;;;;;;8.99;81.48;98247.47;4997203;28;20045;-73
2023/12/10 07:59:47;;;;;;;23.13;4.00;;;;;;;8.98;81.81;98257.13;5014822;28;20409;-73
2023/12/10 08:02:13;;;;;;;20.35;3.83;;;;;;;8.99;81.75;98261.44;5014746;28;20128;-72
2023/12/10 08:04:40;;;;;;;23.48;4.53;;;;;;;8.96;81.54;98258.19;5003505;28;20089;-74
2023/12/10 08:07:07;;;;;;;23.67;5.10;;;;;;;8.98;81.75;98257.13;4994677;28;20046;-72
2023/12/10 08:09:34;;;;;;;21.70;3.80;;;;;;;8.99;81.86;98271.09;4994899;28;20050;-73
2023/12/10 08:12:01;;;;;;;27.23;4.07;;;;;;;8.99;81.66;98274.56;4995692;28;20249;-75
2023/12/10 08:14:28;;;;;;;20.58;4.20;;;;;;;8.99;81.90;98276.34;5000844;28;20054;-75
2023/12/10 08:16:55;;;;;;;15.15;2.92;;;;;;;9.01;81.94;98284.09;5015171;28;20077;-74
2023/12/10 08:19:21;;;;;;;22.88;4.47;;;;;;;9.01;82.01;98294.59;4997636;28;20081;-73
2023/12/10 08:21:48;;;;;;;22.52;4.35;;;;;;;9.03;82.12;98276.94;4997545;28;20100;-74
2023/12/10 08:24:15;;;;;;;20.20;3.88;;;;;;;9.04;81.81;98299.63;5005872;28;20391;-75
2023/12/10 08:26:41;;;;;;;19.00;4.53;;;;;;;9.06;82.11;98297.72;4995362;28;20050;-72
2023/12/10 08:29:08;;;;;;;25.15;5.00;;;;;;;9.07;81.92;98310.72;4995126;28;20450;-74
2023/12/10 08:31:35;;;;;;;19.23;3.75;;;;;;;9.07;81.97;98312.50;4995291;28;20074;-74
2023/12/10 08:34:01;;;;;;;21.13;3.92;;;;;;;9.06;81.82;98301.19;4998364;28;20034;-74
2023/12/10 08:36:28;;;;;;;23.75;4.03;;;;;;;9.07;82.14;98312.50;5014481;28;20104;-73
2023/12/10 08:38:55;;;;;;;18.63;3.90;;;;;;;9.08;82.07;98314.22;5014833;28;20057;-75
2023/12/10 08:41:21;;;;;;;22.27;4.53;;;;;;;9.10;82.00;98323.63;5015124;28;20181;-74
2023/12/10 08:43:48;;;;;;;15.45;3.22;;;;;;;9.12;81.96;98324.34;5014523;28;20467;-73
2023/12/10 08:46:15;;;;;;;16.40;3.58;;;;;;;9.16;82.12;98324.13;4995720;28;20081;-74
2023/12/10 08:48:42;;;;;;;18.77;3.95;;;;;;;9.17;81.92;98339.78;5014403;28;20144;-74
2023/12/10 08:51:09;;;;;;;22.58;4.10;;;;;;;9.18;81.80;98333.56;4996825;28;20053;-74
2023/12/10 08:53:36;;;;;;;25.38;3.92;;;;;;;9.18;81.96;98341.44;5014553;28;20038;-74
2023/12/10 08:56:02;;;;;;;20.27;3.60;;;;;;;9.21;81.93;98353.50;5000816;28;20070;-74
2023/12/10 08:58:30;;;;;;;24.55;4.47;;;;;;;9.20;81.79;98357.91;4994742;28;20046;-74
2023/12/10 09:00:56;;;;;;;25.75;4.78;;;;;;;9.22;82.11;98358.63;5013875;28;20124;-75
2023/12/10 09:03:23;;;;;;;24.90;5.25;;;;;;;9.26;81.91;98364.50;5023568;28;20038;-75
2023/12/10 09:05:50;;;;;;;25.35;4.55;;;;;;;9.25;81.93;98376.81;5013010;28;20053;-72
2023/12/10 09:08:17;;;;;;;23.10;4.13;;;;;;;9.27;81.75;98389.78;5014423;28;20116;-75
2023/12/10 09:10:44;;;;;;;31.40;5.00;;;;;;;9.28;81.90;98395.88;4996792;28;20124;-76
2023/12/10 09:13:10;;;;;;;28.00;4.75;;;;;;;9.30;81.71;98402.69;5017223;28;20081;-74
2023/12/10 09:15:37;;;;;;;32.60;4.50;;;;;;;9.30;81.69;98407.13;5011879;28;20562;-73
2023/12/10 09:18:04;;;;;;;26.85;5.30;;;;;;;9.32;81.84;98405.22;5023915;28;20051;-77
2023/12/10 09:20:30;;;;;;;26.63;5.10;;;;;;;9.33;81.80;98410.34;5016303;28;20200;-74
2023/12/10 09:22:57;;;;;;;24.52;4.20;;;;;;;9.33;81.70;98418.25;5013833;28;20429;-73
2023/12/10 09:25:24;;;;;;;36.00;7.72;;;;;;;9.31;81.41;98416.69;4996547;28;20045;-75
2023/12/10 09:27:50;;;;;;;22.63;4.13;;;;;;;9.33;81.69;98420.88;5009132;28;20478;-73
2023/12/10 09:30:17;;;;;;;20.52;3.97;;;;;;;9.35;81.74;98423.38;5019511;28;20041;-74
2023/12/10 09:32:44;;;;;;;23.63;3.97;;;;;;;9.35;81.60;98439.13;5015323;28;20046;-75
2023/12/10 09:35:11;;;;;;;21.33;4.03;;;;;;;9.37;81.64;98432.81;5030689;28;20053;-72
2023/12/10 09:37:37;;;;;;;25.92;5.10;;;;;;;9.38;81.42;98438.88;5011965;28;20487;-73
2023/12/10 09:40:04;;;;;;;19.83;3.30;;;;;;;9.40;81.53;98439.63;5011155;28;20104;-74
2023/12/10 09:42:31;;;;;;;19.60;4.43;;;;;;;9.42;81.42;98453.47;5013409;28;20045;-75
2023/12/10 09:44:58;;;;;;;25.08;4.35;;;;;;;9.41;81.36;98454.44;5013286;28;20394;-75
2023/12/10 09:47:26;;;;;;;20.55;3.70;;;;;;;9.43;81.43;98464.84;5016234;28;20050;-75
2023/12/10 09:49:57;;;;;;;31.98;4.13;;;;;;;9.42;81.32;98455.28;4995094;28;20044;-76
2023/12/10 09:52:24;;;;;;;18.98;4.13;;;;;;;9.42;81.28;98450.03;5013598;28;20368;-74
2023/12/10 09:54:53;;;;;;;24.70;3.70;;;;;;;9.41;81.09;98457.06;5013567;28;20053;-74
2023/12/10 09:57:22;;;;;;;21.90;4.38;;;;;;;9.41;80.68;98472.00;5012093;28;20048;-74
2023/12/10 09:59:49;;;;;;;21.80;4.72;;;;;;;9.44;81.37;98469.97;4994632;28;20057;-75
2023/12/10 10:02:17;;;;;;;22.70;4.07;;;;;;;9.44;81.67;98477.84;5013334;28;20053;-74
2023/12/10 10:04:44;;;;;;;18.77;3.70;;;;;;;9.44;81.41;98472.59;5013222;28;20045;-75
2023/12/10 10:07:13;;;;;;;31.52;4.75;;;;;;;9.46;81.56;98483.81;5009871;28;20046;-75
2023/12/10 10:09:39;;;;;;;21.50;4.57;;;;;;;9.47;81.44;98477.66;5012681;28;20447;-74
2023/12/10 10:12:07;;;;;;;25.70;4.10;;;;;;;9.48;81.45;98488.97;5012798;28;20390;-75
2023/12/10 10:14:34;;;;;;;20.75;3.97;;;;;;;9.47;81.16;98496.03;5012565;28;20053;-75
2023/12/10 10:17:03;;;;;;;29.38;4.15;;;;;;;9.45;80.93;98503.16;5011478;28;20049;-74
2023/12/10 10:19:29;;;;;;;28.58;4.53;;;;;;;9.47;80.95;98510.94;4993046;28;20450;-74
2023/12/10 10:21:56;;;;;;;18.85;3.90;;;;;;;9.46;81.13;98504.84;4997579;28;20046;-75
2023/12/10 10:24:23;;;;;;;27.85;4.65;;;;;;;9.46;80.91;98514.53;5021685;28;20056;-77
2023/12/10 10:26:52;;;;;;;24.63;4.13;;;;;;;9.47;81.02;98505.69;5018835;28;20128;-73
2023/12/10 10:29:22;;;;;;;21.95;3.95;;;;;;;9.46;80.96;98523.22;5018297;28;20038;-73
2023/12/10 10:31:50;;;;;;;27.85;5.40;;;;;;;9.46;80.89;98525.84;5021348;28;20049;-75
2023/12/10 10:34:16;;;;;;;30.77;5.40;;;;;;;9.46;80.93;98533.72;5004880;28;20121;-75
2023/12/10 10:36:44;;;;;;;18.08;3.83;;;;;;;9.46;80.96;98531.09;5018795;28;20045;-75
2023/12/10 10:39:11;;;;;;;25.75;5.47;;;;;;;9.46;81.06;98535.53;5011120;28;20042;-74
2023/12/10 10:41:38;;;;;;;29.67;4.70;;;;;;;9.44;81.05;98529.53;5012117;28;20487;-74
2023/12/10 10:44:05;;;;;;;24.90;4.82;;;;;;;9.45;81.33;98542.56;5012563;28;20100;-75
2023/12/10 10:46:32;;;;;;;26.23;4.18;;;;;;;9.47;81.54;98537.22;5012317;28;20081;-73
2023/12/10 10:48:59;;;;;;;22.20;4.68;;;;;;;9.48;81.61;98534.47;5010791;28;20809;-73
2023/12/10 10:51:29;;;;;;;25.95;3.90;;;;;;;9.52;81.80;98540.34;4994135;28;20057;-75
2023/12/10 10:53:58;;;;;;;25.52;4.38;;;;;;;9.55;81.71;98540.13;4994189;28;20053;-73
2023/12/10 10:56:25;;;;;;;21.98;4.70;;;;;;;9.58;81.35;98549.56;5011259;28;20057;-74
2023/12/10 10:58:52;;;;;;;25.65;4.57;;;;;;;9.61;81.25;98562.47;5007836;28;20394;-73
2023/12/10 11:01:47;;;;;;;26.35;4.63;;;;;;;9.58;79.38;98560.06;4974553;28;20081;-75
2023/12/10 11:04:17;;;;;;;24.85;4.43;;;;;;;9.64;80.23;98556.97;4973304;28;20487;-74
2023/12/10 11:06:47;;;;;;;26.73;3.90;;;;;;;9.68;80.46;98552.38;5003596;28;20172;-75
2023/12/10 11:09:16;;;;;;;22.23;4.18;;;;;;;9.69;80.58;98565.41;5009776;28;20048;-75
2023/12/10 11:11:43;;;;;;;15.93;4.00;;;;;;;9.72;80.71;98562.53;5011372;28;20048;-74
2023/12/10 11:14:20;;;;;;;19.88;4.35;;;;;;;9.73;79.74;98572.13;5011375;28;20133;-75
2023/12/10 11:16:58;;;;;;;19.08;3.97;;;;;;;9.76;79.61;98569.25;5011274;28;20445;-75
2023/12/10 11:19:25;;;;;;;22.85;4.13;;;;;;;9.83;80.85;98576.69;5009858;28;20053;-76
2023/12/10 11:21:52;;;;;;;23.77;5.53;;;;;;;9.83;80.46;98572.25;4974664;28;20043;-73
2023/12/10 11:24:19;;;;;;;27.23;4.57;;;;;;;9.86;80.39;98577.28;4974439;28;20078;-74
2023/12/10 11:26:46;;;;;;;21.50;4.05;;;;;;;9.90;80.29;98577.91;4991130;28;20465;-76
2023/12/10 11:29:13;;;;;;;24.20;4.15;;;;;;;9.91;80.16;98585.69;4991524;28;20061;-74
2023/12/10 11:31:43;;;;;;;22.25;4.05;;;;;;;9.94;79.65;98568.03;4988896;28;20400;-73
2023/12/10 11:34:11;;;;;;;19.92;4.03;;;;;;;9.98;79.94;98578.19;5011123;28;20467;-74